Nichiryu Maru — JG5632 — position and weather

sailwx.info

Track history (hours):
 
Tides and Currents Weather Stations Pressure Air Temp Water Temp Dewpoint Dewpoint Depression Visibility Wind Speed Wind Dir Waves Ship Positions

Nichiryu Maru

Last reported at 2017-Nov-20 00:29 UTC. Time now 2017-Nov-22 14:57 UTC.
Position N 35°19' E 139°39'.

Length 158 m; draft 6.5 m.

Type: Cargo ship. MMSI: 43100939.

Date/timePositionNaut miles runAvg speedWind from/ knotsBaromVisibWave heightAir tempDewpointWater temp
2017-Nov-20 00:29N 35°19' E 139°39'0 0.0
2017-Nov-19 23:59N 35°19' E 139°39'0 0.0
2017-Nov-19 23:29N 35°19' E 139°39'1 1.1
2017-Nov-19 23:00N 35°19' E 139°40'1 1.7
2017-Nov-19 22:25N 35°19' E 139°41'0 0.0
2017-Nov-19 21:58N 35°19' E 139°41'0 0.0
2017-Nov-19 21:28N 35°19' E 139°41'0 0.1
2017-Nov-19 20:55N 35°19' E 139°41'0 0.0
2017-Nov-19 20:28N 35°19' E 139°41'0 0.0
2017-Nov-19 19:58N 35°19' E 139°41'0 0.0
2017-Nov-19 19:28N 35°19' E 139°41'0 0.0
2017-Nov-19 18:58N 35°19' E 139°41'0 0.1
2017-Nov-19 18:28N 35°19' E 139°41'0 0.0
2017-Nov-19 17:55N 35°19' E 139°41'0 0.0
2017-Nov-19 17:28N 35°19' E 139°41'0 0.1
2017-Nov-19 16:55N 35°19' E 139°41'0 0.1
2017-Nov-19 16:28N 35°19' E 139°41'0 0.1
2017-Nov-19 15:58N 35°19' E 139°41'0 0.0
2017-Nov-19 15:28N 35°19' E 139°41'0 0.1
2017-Nov-19 14:58N 35°19' E 139°41'0 0.0
2017-Nov-19 14:28N 35°19' E 139°41'0 0.2
2017-Nov-19 14:00N 35°19' E 139°41'4 8.0
2017-Nov-19 13:30N 35°17' E 139°45'611.3
2017-Nov-19 13:01N 35°12' E 139°47'917.4
2017-Nov-19 12:30N 35°04' E 139°42'918.2
2017-Nov-19 12:00N 34°57' E 139°34'229 4.4
2017-Nov-17 08:21N 34°37' E 134°57'618.0
2017-Nov-17 08:00N 34°36' E 135°04'917.4
2017-Nov-17 07:30N 34°37' E 135°15'4 8.0
2017-Nov-17 07:00N 34°41' E 135°14'0 0.7
2017-Nov-17 06:29N 34°41' E 135°13'0 0.0
2017-Nov-17 05:59N 34°41' E 135°13'0 0.0
2017-Nov-17 05:23N 34°41' E 135°13'0 0.0
2017-Nov-17 04:59N 34°41' E 135°13'0 0.0
2017-Nov-17 04:29N 34°41' E 135°13'0 0.0
2017-Nov-17 03:59N 34°41' E 135°13'0 0.0
2017-Nov-17 03:29N 34°41' E 135°13'0 0.2
2017-Nov-17 03:00N 34°41' E 135°14'5 9.2
2017-Nov-17 02:31N 34°37' E 135°16'917.7
2017-Nov-17 02:00N 34°29' E 135°11'917.7
2017-Nov-17 01:30N 34°22' E 135°03'917.3
2017-Nov-17 01:00N 34°15' E 134°59'918.5
2017-Nov-17 00:30N 34°05' E 134°60'22616.3
2017-Nov-16 10:37N 34°55' E 139°28'319.5
2017-Nov-16 10:29N 34°57' E 139°30'919.6
2017-Nov-16 10:00N 35°03' E 139°39'917.8
2017-Nov-16 09:30N 35°10' E 139°45'713.3
2017-Nov-16 09:00N 35°17' E 139°45'5 9.4
2017-Nov-16 08:30N 35°19' E 139°40'1 1.4
2017-Nov-16 08:00N 35°19' E 139°39'0 0.0
2017-Nov-16 07:30N 35°19' E 139°39'0 0.0
2017-Nov-16 06:57N 35°19' E 139°39'0 0.0
2017-Nov-16 06:30N 35°19' E 139°39'0 0.0
2017-Nov-16 06:00N 35°19' E 139°39'0 0.0
2017-Nov-16 05:30N 35°19' E 139°39'0 0.0
2017-Nov-16 05:00N 35°19' E 139°39'0 0.0
2017-Nov-16 04:30N 35°19' E 139°39'0 0.0
2017-Nov-16 04:00N 35°19' E 139°39'0 0.3
2017-Nov-16 03:31N 35°19' E 139°39'510.8
2017-Nov-16 03:01N 35°17' E 139°45'612.7
2017-Nov-16 02:31N 35°11' E 139°46'816.0
2017-Nov-16 02:00N 35°04' E 139°41'917.2
2017-Nov-16 01:30N 34°58' E 139°33'815.8
2017-Nov-16 00:58N 34°50' E 139°30'  
2017-Nov-13 01:55N 35°19' E 139°39'0 0.0
2017-Nov-13 01:28N 35°19' E 139°39'0 0.0
2017-Nov-13 00:58N 35°19' E 139°39'0 0.0
2017-Nov-13 00:28N 35°19' E 139°39'0 0.0
2017-Nov-12 23:55N 35°19' E 139°39'0 0.0
2017-Nov-12 23:28N 35°19' E 139°39'0 1.1
2017-Nov-12 23:00N 35°19' E 139°40'1 2.0
2017-Nov-12 22:28N 35°19' E 139°41'0 0.0
2017-Nov-12 21:58N 35°19' E 139°41'0 0.0
2017-Nov-12 21:28N 35°19' E 139°41'0 0.0
2017-Nov-12 20:58N 35°19' E 139°41'0 0.0
2017-Nov-12 20:28N 35°19' E 139°41'0 0.0
2017-Nov-12 19:58N 35°19' E 139°41'0 0.0
2017-Nov-12 19:28N 35°19' E 139°41'0 0.0
2017-Nov-12 18:58N 35°19' E 139°41'0 0.0
2017-Nov-12 18:28N 35°19' E 139°41'0 0.1
2017-Nov-12 17:58N 35°19' E 139°41'0 0.1
2017-Nov-12 17:28N 35°19' E 139°41'0 0.0
2017-Nov-12 16:58N 35°19' E 139°41'0 0.0
2017-Nov-12 16:28N 35°19' E 139°41'0 0.0
2017-Nov-12 15:58N 35°19' E 139°41'0 0.2
2017-Nov-12 15:28N 35°19' E 139°41'0 0.0
2017-Nov-12 14:58N 35°19' E 139°41'0 0.0
2017-Nov-12 14:28N 35°19' E 139°41'0 0.0
2017-Nov-12 13:58N 35°19' E 139°41'0 0.1
2017-Nov-12 13:28N 35°19' E 139°41'1 2.8
2017-Nov-12 13:00N 35°19' E 139°42'611.8
2017-Nov-12 12:30N 35°14' E 139°47'917.2
2017-Nov-12 12:00N 35°06' E 139°42'1019.4
2017-Nov-12 11:30N 35°00' E 139°33'226 4.4
2017-Nov-10 08:05N 34°38' E 134°59'117.8
2017-Nov-10 08:00N 34°37' E 135°01'917.6
2017-Nov-10 07:30N 34°36' E 135°12'5 9.6
2017-Nov-10 07:00N 34°41' E 135°14'0 0.8
2017-Nov-10 06:30N 34°41' E 135°13'0 0.0
2017-Nov-10 06:00N 34°41' E 135°13'0 0.0
2017-Nov-10 05:30N 34°41' E 135°13'0 0.0
2017-Nov-10 04:48N 34°41' E 135°13'0 0.0
2017-Nov-10 04:24N 34°41' E 135°13'0 0.0
2017-Nov-10 04:00N 34°41' E 135°13'0 0.0
2017-Nov-10 03:30N 34°41' E 135°13'0 0.0
2017-Nov-10 02:58N 34°41' E 135°13'0 0.3
2017-Nov-10 02:30N 34°41' E 135°14'511.1
2017-Nov-10 02:01N 34°35' E 135°15'917.6
2017-Nov-10 01:30N 34°28' E 135°09'1118.5
2017-Nov-10 00:56N 34°20' E 135°01'818.0
2017-Nov-10 00:31N 34°12' E 134°59'  
Track history (hours):
 
Tides and Currents Weather Stations Pressure Air Temp Water Temp Dewpoint Dewpoint Depression Visibility Wind Speed Wind Dir Waves Ship Positions

Nichiryu Maru

Last reported at 2017-Nov-20 00:29 UTC. Time now 2017-Nov-22 14:57 UTC.
Position N 35°19' E 139°39'.

Length 158 m; draft 6.5 m.

Type: Cargo ship. MMSI: 43100939.

Date/timePositionNaut miles runAvg speedWind from/ knotsBaromVisibWave heightAir tempDewpointWater temp
2017-Nov-20 00:29N 35°19' E 139°39'0 0.0
2017-Nov-19 23:59N 35°19' E 139°39'0 0.0
2017-Nov-19 23:29N 35°19' E 139°39'1 1.1
2017-Nov-19 23:00N 35°19' E 139°40'1 1.7
2017-Nov-19 22:25N 35°19' E 139°41'0 0.0
2017-Nov-19 21:58N 35°19' E 139°41'0 0.0
2017-Nov-19 21:28N 35°19' E 139°41'0 0.1
2017-Nov-19 20:55N 35°19' E 139°41'0 0.0
2017-Nov-19 20:28N 35°19' E 139°41'0 0.0
2017-Nov-19 19:58N 35°19' E 139°41'0 0.0
2017-Nov-19 19:28N 35°19' E 139°41'0 0.0
2017-Nov-19 18:58N 35°19' E 139°41'0 0.1
2017-Nov-19 18:28N 35°19' E 139°41'0 0.0
2017-Nov-19 17:55N 35°19' E 139°41'0 0.0
2017-Nov-19 17:28N 35°19' E 139°41'0 0.1
2017-Nov-19 16:55N 35°19' E 139°41'0 0.1
2017-Nov-19 16:28N 35°19' E 139°41'0 0.1
2017-Nov-19 15:58N 35°19' E 139°41'0 0.0
2017-Nov-19 15:28N 35°19' E 139°41'0 0.1
2017-Nov-19 14:58N 35°19' E 139°41'0 0.0
2017-Nov-19 14:28N 35°19' E 139°41'0 0.2
2017-Nov-19 14:00N 35°19' E 139°41'4 8.0
2017-Nov-19 13:30N 35°17' E 139°45'611.3
2017-Nov-19 13:01N 35°12' E 139°47'917.4
2017-Nov-19 12:30N 35°04' E 139°42'918.2
2017-Nov-19 12:00N 34°57' E 139°34'229 4.4
2017-Nov-17 08:21N 34°37' E 134°57'618.0
2017-Nov-17 08:00N 34°36' E 135°04'917.4
2017-Nov-17 07:30N 34°37' E 135°15'4 8.0
2017-Nov-17 07:00N 34°41' E 135°14'0 0.7
2017-Nov-17 06:29N 34°41' E 135°13'0 0.0
2017-Nov-17 05:59N 34°41' E 135°13'0 0.0
2017-Nov-17 05:23N 34°41' E 135°13'0 0.0
2017-Nov-17 04:59N 34°41' E 135°13'0 0.0
2017-Nov-17 04:29N 34°41' E 135°13'0 0.0
2017-Nov-17 03:59N 34°41' E 135°13'0 0.0
2017-Nov-17 03:29N 34°41' E 135°13'0 0.2
2017-Nov-17 03:00N 34°41' E 135°14'5 9.2
2017-Nov-17 02:31N 34°37' E 135°16'917.7
2017-Nov-17 02:00N 34°29' E 135°11'917.7
2017-Nov-17 01:30N 34°22' E 135°03'917.3
2017-Nov-17 01:00N 34°15' E 134°59'918.5
2017-Nov-17 00:30N 34°05' E 134°60'22616.3
2017-Nov-16 10:37N 34°55' E 139°28'319.5
2017-Nov-16 10:29N 34°57' E 139°30'919.6
2017-Nov-16 10:00N 35°03' E 139°39'917.8
2017-Nov-16 09:30N 35°10' E 139°45'713.3
2017-Nov-16 09:00N 35°17' E 139°45'5 9.4
2017-Nov-16 08:30N 35°19' E 139°40'1 1.4
2017-Nov-16 08:00N 35°19' E 139°39'0 0.0
2017-Nov-16 07:30N 35°19' E 139°39'0 0.0
2017-Nov-16 06:57N 35°19' E 139°39'0 0.0
2017-Nov-16 06:30N 35°19' E 139°39'0 0.0
2017-Nov-16 06:00N 35°19' E 139°39'0 0.0
2017-Nov-16 05:30N 35°19' E 139°39'0 0.0
2017-Nov-16 05:00N 35°19' E 139°39'0 0.0
2017-Nov-16 04:30N 35°19' E 139°39'0 0.0
2017-Nov-16 04:00N 35°19' E 139°39'0 0.3
2017-Nov-16 03:31N 35°19' E 139°39'510.8
2017-Nov-16 03:01N 35°17' E 139°45'612.7
2017-Nov-16 02:31N 35°11' E 139°46'816.0
2017-Nov-16 02:00N 35°04' E 139°41'917.2
2017-Nov-16 01:30N 34°58' E 139°33'815.8
2017-Nov-16 00:58N 34°50' E 139°30'  
2017-Nov-13 01:55N 35°19' E 139°39'0 0.0
2017-Nov-13 01:28N 35°19' E 139°39'0 0.0
2017-Nov-13 00:58N 35°19' E 139°39'0 0.0
2017-Nov-13 00:28N 35°19' E 139°39'0 0.0
2017-Nov-12 23:55N 35°19' E 139°39'0 0.0
2017-Nov-12 23:28N 35°19' E 139°39'0 1.1
2017-Nov-12 23:00N 35°19' E 139°40'1 2.0
2017-Nov-12 22:28N 35°19' E 139°41'0 0.0
2017-Nov-12 21:58N 35°19' E 139°41'0 0.0
2017-Nov-12 21:28N 35°19' E 139°41'0 0.0
2017-Nov-12 20:58N 35°19' E 139°41'0 0.0
2017-Nov-12 20:28N 35°19' E 139°41'0 0.0
2017-Nov-12 19:58N 35°19' E 139°41'0 0.0
2017-Nov-12 19:28N 35°19' E 139°41'0 0.0
2017-Nov-12 18:58N 35°19' E 139°41'0 0.0
2017-Nov-12 18:28N 35°19' E 139°41'0 0.1
2017-Nov-12 17:58N 35°19' E 139°41'0 0.1
2017-Nov-12 17:28N 35°19' E 139°41'0 0.0
2017-Nov-12 16:58N 35°19' E 139°41'0 0.0
2017-Nov-12 16:28N 35°19' E 139°41'0 0.0
2017-Nov-12 15:58N 35°19' E 139°41'0 0.2
2017-Nov-12 15:28N 35°19' E 139°41'0 0.0
2017-Nov-12 14:58N 35°19' E 139°41'0 0.0
2017-Nov-12 14:28N 35°19' E 139°41'0 0.0
2017-Nov-12 13:58N 35°19' E 139°41'0 0.1
2017-Nov-12 13:28N 35°19' E 139°41'1 2.8
2017-Nov-12 13:00N 35°19' E 139°42'611.8
2017-Nov-12 12:30N 35°14' E 139°47'917.2
2017-Nov-12 12:00N 35°06' E 139°42'1019.4
2017-Nov-12 11:30N 35°00' E 139°33'226 4.4
2017-Nov-10 08:05N 34°38' E 134°59'117.8
2017-Nov-10 08:00N 34°37' E 135°01'917.6
2017-Nov-10 07:30N 34°36' E 135°12'5 9.6
2017-Nov-10 07:00N 34°41' E 135°14'0 0.8
2017-Nov-10 06:30N 34°41' E 135°13'0 0.0
2017-Nov-10 06:00N 34°41' E 135°13'0 0.0
2017-Nov-10 05:30N 34°41' E 135°13'0 0.0
2017-Nov-10 04:48N 34°41' E 135°13'0 0.0
2017-Nov-10 04:24N 34°41' E 135°13'0 0.0
2017-Nov-10 04:00N 34°41' E 135°13'0 0.0
2017-Nov-10 03:30N 34°41' E 135°13'0 0.0
2017-Nov-10 02:58N 34°41' E 135°13'0 0.3
2017-Nov-10 02:30N 34°41' E 135°14'511.1
2017-Nov-10 02:01N 34°35' E 135°15'917.6
2017-Nov-10 01:30N 34°28' E 135°09'1118.5
2017-Nov-10 00:56N 34°20' E 135°01'818.0
2017-Nov-10 00:31N 34°12' E 134°59'  

Dump ship's entire track history